sensor_id;sensor_type;location;lat;lon;timestamp;P1;durP1;ratioP1;P2;durP2;ratioP2
30215;SDS011;17028;47.642;8.070;2022-07-18T00:02:32;2.63;;;1.80;;
30215;SDS011;17028;47.642;8.070;2022-07-18T00:07:33;3.03;;;1.80;;
30215;SDS011;17028;47.642;8.070;2022-07-18T00:12:34;2.97;;;1.88;;
30215;SDS011;17028;47.642;8.070;2022-07-18T00:17:36;2.67;;;1.77;;
30215;SDS011;17028;47.642;8.070;2022-07-18T00:22:37;2.80;;;1.65;;
30215;SDS011;17028;47.642;8.070;2022-07-18T00:27:39;2.40;;;1.60;;
30215;SDS011;17028;47.642;8.070;2022-07-18T00:32:40;3.40;;;1.70;;
30215;SDS011;17028;47.642;8.070;2022-07-18T00:37:41;5.25;;;1.77;;
30215;SDS011;17028;47.642;8.070;2022-07-18T00:42:42;4.20;;;1.45;;
30215;SDS011;17028;47.642;8.070;2022-07-18T00:47:43;2.03;;;1.40;;
30215;SDS011;17028;47.642;8.070;2022-07-18T00:52:45;3.53;;;1.73;;
30215;SDS011;17028;47.642;8.070;2022-07-18T00:57:46;2.72;;;1.65;;
30215;SDS011;17028;47.642;8.070;2022-07-18T01:02:47;2.05;;;1.42;;
30215;SDS011;17028;47.642;8.070;2022-07-18T01:07:48;2.42;;;1.60;;
30215;SDS011;17028;47.642;8.070;2022-07-18T01:12:50;3.00;;;1.80;;
30215;SDS011;17028;47.642;8.070;2022-07-18T01:17:51;4.80;;;1.83;;
30215;SDS011;17028;47.642;8.070;2022-07-18T01:22:52;4.18;;;1.80;;
30215;SDS011;17028;47.642;8.070;2022-07-18T01:27:53;2.78;;;1.60;;
30215;SDS011;17028;47.642;8.070;2022-07-18T01:32:58;2.83;;;1.80;;
30215;SDS011;17028;47.642;8.070;2022-07-18T01:38:01;3.08;;;1.70;;
30215;SDS011;17028;47.642;8.070;2022-07-18T01:43:03;3.92;;;1.83;;
30215;SDS011;17028;47.642;8.070;2022-07-18T01:48:04;3.55;;;1.70;;
30215;SDS011;17028;47.642;8.070;2022-07-18T01:53:05;2.90;;;1.70;;
30215;SDS011;17028;47.642;8.070;2022-07-18T01:58:07;2.83;;;1.75;;
30215;SDS011;17028;47.642;8.070;2022-07-18T02:03:08;6.00;;;1.98;;
30215;SDS011;17028;47.642;8.070;2022-07-18T02:08:09;2.17;;;1.70;;
30215;SDS011;17028;47.642;8.070;2022-07-18T02:13:10;2.80;;;1.77;;
30215;SDS011;17028;47.642;8.070;2022-07-18T02:18:11;2.35;;;1.50;;
30215;SDS011;17028;47.642;8.070;2022-07-18T02:23:12;2.03;;;1.40;;
30215;SDS011;17028;47.642;8.070;2022-07-18T02:28:13;2.80;;;1.73;;
30215;SDS011;17028;47.642;8.070;2022-07-18T02:33:14;2.10;;;1.50;;
30215;SDS011;17028;47.642;8.070;2022-07-18T02:38:16;2.80;;;1.63;;
30215;SDS011;17028;47.642;8.070;2022-07-18T02:43:17;3.00;;;1.75;;
30215;SDS011;17028;47.642;8.070;2022-07-18T02:48:18;3.42;;;1.70;;
30215;SDS011;17028;47.642;8.070;2022-07-18T02:53:19;2.10;;;1.40;;
30215;SDS011;17028;47.642;8.070;2022-07-18T02:58:22;3.03;;;1.63;;
30215;SDS011;17028;47.642;8.070;2022-07-18T03:03:23;2.58;;;1.70;;
30215;SDS011;17028;47.642;8.070;2022-07-18T03:08:24;2.38;;;1.73;;
30215;SDS011;17028;47.642;8.070;2022-07-18T03:13:25;3.08;;;1.85;;
30215;SDS011;17028;47.642;8.070;2022-07-18T03:18:27;3.53;;;1.65;;
30215;SDS011;17028;47.642;8.070;2022-07-18T03:23:28;2.45;;;1.60;;
30215;SDS011;17028;47.642;8.070;2022-07-18T03:28:29;2.67;;;1.50;;
30215;SDS011;17028;47.642;8.070;2022-07-18T03:33:30;3.03;;;1.83;;
30215;SDS011;17028;47.642;8.070;2022-07-18T03:38:31;2.63;;;1.50;;
30215;SDS011;17028;47.642;8.070;2022-07-18T03:43:32;2.35;;;1.63;;
30215;SDS011;17028;47.642;8.070;2022-07-18T03:48:34;2.63;;;1.67;;
30215;SDS011;17028;47.642;8.070;2022-07-18T03:53:35;3.10;;;1.70;;
30215;SDS011;17028;47.642;8.070;2022-07-18T03:58:36;4.15;;;1.80;;
30215;SDS011;17028;47.642;8.070;2022-07-18T04:03:37;3.10;;;1.90;;
30215;SDS011;17028;47.642;8.070;2022-07-18T04:08:38;2.80;;;1.70;;
30215;SDS011;17028;47.642;8.070;2022-07-18T04:13:39;2.95;;;1.63;;
30215;SDS011;17028;47.642;8.070;2022-07-18T04:18:40;2.95;;;1.70;;
30215;SDS011;17028;47.642;8.070;2022-07-18T04:23:41;2.53;;;1.70;;
30215;SDS011;17028;47.642;8.070;2022-07-18T04:28:43;3.30;;;1.70;;
30215;SDS011;17028;47.642;8.070;2022-07-18T04:33:44;2.38;;;1.50;;
30215;SDS011;17028;47.642;8.070;2022-07-18T04:38:46;2.33;;;1.52;;
30215;SDS011;17028;47.642;8.070;2022-07-18T04:43:47;1.98;;;1.50;;
30215;SDS011;17028;47.642;8.070;2022-07-18T04:48:48;2.83;;;1.70;;
30215;SDS011;17028;47.642;8.070;2022-07-18T04:53:49;2.22;;;1.52;;
30215;SDS011;17028;47.642;8.070;2022-07-18T04:58:50;2.88;;;1.70;;
30215;SDS011;17028;47.642;8.070;2022-07-18T05:03:51;2.70;;;1.70;;
30215;SDS011;17028;47.642;8.070;2022-07-18T05:08:52;4.40;;;1.70;;
30215;SDS011;17028;47.642;8.070;2022-07-18T05:13:53;2.20;;;1.48;;
30215;SDS011;17028;47.642;8.070;2022-07-18T05:18:54;1.88;;;1.20;;
30215;SDS011;17028;47.642;8.070;2022-07-18T05:23:56;3.17;;;1.58;;
30215;SDS011;17028;47.642;8.070;2022-07-18T05:28:57;2.60;;;1.67;;
30215;SDS011;17028;47.642;8.070;2022-07-18T05:33:58;1.90;;;1.40;;
30215;SDS011;17028;47.642;8.070;2022-07-18T05:38:59;2.35;;;1.40;;
30215;SDS011;17028;47.642;8.070;2022-07-18T05:44:00;2.00;;;1.38;;
30215;SDS011;17028;47.642;8.070;2022-07-18T05:49:01;1.75;;;1.15;;
30215;SDS011;17028;47.642;8.070;2022-07-18T05:54:02;1.50;;;1.10;;
30215;SDS011;17028;47.642;8.070;2022-07-18T05:59:03;1.67;;;1.38;;
30215;SDS011;17028;47.642;8.070;2022-07-18T06:04:05;2.47;;;1.70;;
30215;SDS011;17028;47.642;8.070;2022-07-18T06:09:06;2.88;;;1.70;;
30215;SDS011;17028;47.642;8.070;2022-07-18T06:14:09;2.88;;;1.80;;
30215;SDS011;17028;47.642;8.070;2022-07-18T06:19:10;5.07;;;1.80;;
30215;SDS011;17028;47.642;8.070;2022-07-18T06:24:11;2.72;;;1.70;;
30215;SDS011;17028;47.642;8.070;2022-07-18T06:29:12;2.28;;;1.50;;
30215;SDS011;17028;47.642;8.070;2022-07-18T06:34:13;3.17;;;2.03;;
30215;SDS011;17028;47.642;8.070;2022-07-18T06:39:14;5.43;;;1.80;;
30215;SDS011;17028;47.642;8.070;2022-07-18T06:44:17;3.30;;;1.52;;
30215;SDS011;17028;47.642;8.070;2022-07-18T06:49:18;2.60;;;1.48;;
30215;SDS011;17028;47.642;8.070;2022-07-18T06:54:20;2.80;;;1.85;;
30215;SDS011;17028;47.642;8.070;2022-07-18T06:59:26;3.55;;;1.70;;
30215;SDS011;17028;47.642;8.070;2022-07-18T07:04:27;3.50;;;2.03;;
30215;SDS011;17028;47.642;8.070;2022-07-18T07:09:28;2.58;;;1.70;;
30215;SDS011;17028;47.642;8.070;2022-07-18T07:14:30;4.18;;;1.75;;
30215;SDS011;17028;47.642;8.070;2022-07-18T07:19:31;3.47;;;1.77;;
30215;SDS011;17028;47.642;8.070;2022-07-18T07:24:32;2.45;;;1.90;;
30215;SDS011;17028;47.642;8.070;2022-07-18T07:29:33;3.33;;;1.88;;
30215;SDS011;17028;47.642;8.070;2022-07-18T07:34:34;3.30;;;2.00;;
30215;SDS011;17028;47.642;8.070;2022-07-18T07:39:35;3.17;;;2.00;;
30215;SDS011;17028;47.642;8.070;2022-07-18T07:44:36;3.53;;;2.45;;
30215;SDS011;17028;47.642;8.070;2022-07-18T07:49:37;3.47;;;2.10;;
30215;SDS011;17028;47.642;8.070;2022-07-18T07:54:38;5.25;;;2.50;;
30215;SDS011;17028;47.642;8.070;2022-07-18T07:59:39;3.67;;;2.15;;
30215;SDS011;17028;47.642;8.070;2022-07-18T08:04:40;3.70;;;2.13;;
30215;SDS011;17028;47.642;8.070;2022-07-18T08:09:41;2.63;;;1.92;;
30215;SDS011;17028;47.642;8.070;2022-07-18T08:14:43;5.25;;;2.65;;
30215;SDS011;17028;47.642;8.070;2022-07-18T08:19:44;3.63;;;2.30;;
30215;SDS011;17028;47.642;8.070;2022-07-18T08:24:45;3.13;;;2.13;;
30215;SDS011;17028;47.642;8.070;2022-07-18T08:29:46;2.78;;;1.98;;
30215;SDS011;17028;47.642;8.070;2022-07-18T08:34:47;3.58;;;2.00;;
30215;SDS011;17028;47.642;8.070;2022-07-18T08:39:48;3.65;;;2.00;;
30215;SDS011;17028;47.642;8.070;2022-07-18T08:44:49;4.55;;;2.40;;
30215;SDS011;17028;47.642;8.070;2022-07-18T08:49:50;5.03;;;2.22;;
30215;SDS011;17028;47.642;8.070;2022-07-18T08:54:52;2.60;;;1.90;;
30215;SDS011;17028;47.642;8.070;2022-07-18T08:59:53;4.88;;;1.90;;
30215;SDS011;17028;47.642;8.070;2022-07-18T09:04:54;4.68;;;2.00;;
30215;SDS011;17028;47.642;8.070;2022-07-18T09:09:56;5.25;;;2.00;;
30215;SDS011;17028;47.642;8.070;2022-07-18T09:15:06;3.88;;;2.00;;
30215;SDS011;17028;47.642;8.070;2022-07-18T09:25:13;4.70;;;2.77;;
30215;SDS011;17028;47.642;8.070;2022-07-18T09:35:25;5.75;;;1.95;;
30215;SDS011;17028;47.642;8.070;2022-07-18T09:45:44;2.75;;;1.83;;
30215;SDS011;17028;47.642;8.070;2022-07-18T09:50:54;5.93;;;2.30;;
30215;SDS011;17028;47.642;8.070;2022-07-18T10:01:08;3.97;;;2.20;;
30215;SDS011;17028;47.642;8.070;2022-07-18T10:06:10;4.60;;;1.87;;
30215;SDS011;17028;47.642;8.070;2022-07-18T10:11:12;2.80;;;1.90;;
30215;SDS011;17028;47.642;8.070;2022-07-18T10:16:14;3.92;;;1.83;;
30215;SDS011;17028;47.642;8.070;2022-07-18T10:21:15;2.72;;;1.80;;
30215;SDS011;17028;47.642;8.070;2022-07-18T10:31:25;4.30;;;1.80;;
30215;SDS011;17028;47.642;8.070;2022-07-18T10:36:28;9.90;;;2.20;;
30215;SDS011;17028;47.642;8.070;2022-07-18T10:41:29;3.22;;;1.80;;
30215;SDS011;17028;47.642;8.070;2022-07-18T10:47:01;4.95;;;1.95;;
30215;SDS011;17028;47.642;8.070;2022-07-18T10:57:33;2.78;;;1.70;;
30215;SDS011;17028;47.642;8.070;2022-07-18T11:07:39;3.75;;;1.77;;
30215;SDS011;17028;47.642;8.070;2022-07-18T11:18:25;3.58;;;1.52;;
30215;SDS011;17028;47.642;8.070;2022-07-18T11:23:27;3.35;;;1.90;;
30215;SDS011;17028;47.642;8.070;2022-07-18T11:28:28;2.30;;;1.70;;
30215;SDS011;17028;47.642;8.070;2022-07-18T11:33:30;3.15;;;1.70;;
30215;SDS011;17028;47.642;8.070;2022-07-18T11:38:33;2.60;;;1.52;;
30215;SDS011;17028;47.642;8.070;2022-07-18T11:43:36;2.60;;;1.80;;
30215;SDS011;17028;47.642;8.070;2022-07-18T11:48:37;4.13;;;1.75;;
30215;SDS011;17028;47.642;8.070;2022-07-18T11:58:45;4.57;;;2.10;;
30215;SDS011;17028;47.642;8.070;2022-07-18T12:03:47;2.97;;;1.70;;
30215;SDS011;17028;47.642;8.070;2022-07-18T12:08:51;3.07;;;1.87;;
30215;SDS011;17028;47.642;8.070;2022-07-18T12:19:20;4.35;;;1.80;;
30215;SDS011;17028;47.642;8.070;2022-07-18T12:29:30;4.38;;;1.95;;
30215;SDS011;17028;47.642;8.070;2022-07-18T12:34:31;2.55;;;1.75;;
30215;SDS011;17028;47.642;8.070;2022-07-18T12:39:33;3.53;;;1.75;;
30215;SDS011;17028;47.642;8.070;2022-07-18T12:44:34;3.08;;;1.77;;
30215;SDS011;17028;47.642;8.070;2022-07-18T12:49:35;5.78;;;1.85;;
30215;SDS011;17028;47.642;8.070;2022-07-18T12:54:36;4.05;;;1.98;;
30215;SDS011;17028;47.642;8.070;2022-07-18T12:59:37;8.45;;;2.03;;
30215;SDS011;17028;47.642;8.070;2022-07-18T13:04:38;3.63;;;1.77;;
30215;SDS011;17028;47.642;8.070;2022-07-18T13:09:39;4.28;;;1.48;;
30215;SDS011;17028;47.642;8.070;2022-07-18T13:14:40;6.07;;;1.98;;
30215;SDS011;17028;47.642;8.070;2022-07-18T13:19:41;4.38;;;1.88;;
30215;SDS011;17028;47.642;8.070;2022-07-18T13:24:43;4.13;;;1.60;;
30215;SDS011;17028;47.642;8.070;2022-07-18T13:29:44;4.05;;;1.88;;
30215;SDS011;17028;47.642;8.070;2022-07-18T13:34:45;4.75;;;1.75;;
30215;SDS011;17028;47.642;8.070;2022-07-18T13:39:46;5.18;;;2.05;;
30215;SDS011;17028;47.642;8.070;2022-07-18T13:44:47;4.28;;;2.00;;
30215;SDS011;17028;47.642;8.070;2022-07-18T13:49:48;6.13;;;2.15;;
30215;SDS011;17028;47.642;8.070;2022-07-18T13:54:50;5.47;;;2.30;;
30215;SDS011;17028;47.642;8.070;2022-07-18T13:59:54;3.05;;;1.90;;
30215;SDS011;17028;47.642;8.070;2022-07-18T14:04:55;4.07;;;2.05;;
30215;SDS011;17028;47.642;8.070;2022-07-18T14:09:56;3.58;;;1.90;;
30215;SDS011;17028;47.642;8.070;2022-07-18T14:14:57;3.17;;;1.85;;
30215;SDS011;17028;47.642;8.070;2022-07-18T14:19:59;6.20;;;2.00;;
30215;SDS011;17028;47.642;8.070;2022-07-18T14:25:00;3.13;;;1.95;;
30215;SDS011;17028;47.642;8.070;2022-07-18T14:30:01;4.90;;;2.05;;
30215;SDS011;17028;47.642;8.070;2022-07-18T14:35:03;3.67;;;2.08;;
30215;SDS011;17028;47.642;8.070;2022-07-18T14:40:05;5.50;;;2.40;;
30215;SDS011;17028;47.642;8.070;2022-07-18T14:45:07;4.70;;;2.10;;
30215;SDS011;17028;47.642;8.070;2022-07-18T14:50:09;4.43;;;2.22;;
30215;SDS011;17028;47.642;8.070;2022-07-18T14:55:10;5.45;;;2.47;;
30215;SDS011;17028;47.642;8.070;2022-07-18T15:00:12;4.50;;;2.05;;
30215;SDS011;17028;47.642;8.070;2022-07-18T15:05:13;4.30;;;2.20;;
30215;SDS011;17028;47.642;8.070;2022-07-18T15:10:14;4.57;;;2.25;;
30215;SDS011;17028;47.642;8.070;2022-07-18T15:15:15;4.63;;;2.10;;
30215;SDS011;17028;47.642;8.070;2022-07-18T15:20:16;6.13;;;2.33;;
30215;SDS011;17028;47.642;8.070;2022-07-18T15:25:18;3.38;;;2.08;;
30215;SDS011;17028;47.642;8.070;2022-07-18T15:30:19;4.93;;;2.22;;
30215;SDS011;17028;47.642;8.070;2022-07-18T15:35:21;3.88;;;1.80;;
30215;SDS011;17028;47.642;8.070;2022-07-18T15:40:22;3.67;;;2.05;;
30215;SDS011;17028;47.642;8.070;2022-07-18T15:45:24;5.22;;;1.98;;
30215;SDS011;17028;47.642;8.070;2022-07-18T15:50:25;5.10;;;2.20;;
30215;SDS011;17028;47.642;8.070;2022-07-18T15:55:26;6.53;;;2.17;;
30215;SDS011;17028;47.642;8.070;2022-07-18T16:00:30;5.50;;;2.10;;
30215;SDS011;17028;47.642;8.070;2022-07-18T16:05:31;3.17;;;1.90;;
30215;SDS011;17028;47.642;8.070;2022-07-18T16:10:32;5.15;;;1.95;;
30215;SDS011;17028;47.642;8.070;2022-07-18T16:15:33;4.32;;;2.00;;
30215;SDS011;17028;47.642;8.070;2022-07-18T16:20:34;5.13;;;2.33;;
30215;SDS011;17028;47.642;8.070;2022-07-18T16:25:35;3.38;;;2.03;;
30215;SDS011;17028;47.642;8.070;2022-07-18T16:30:38;5.72;;;2.00;;
30215;SDS011;17028;47.642;8.070;2022-07-18T16:35:39;3.42;;;2.10;;
30215;SDS011;17028;47.642;8.070;2022-07-18T16:40:40;4.68;;;2.00;;
30215;SDS011;17028;47.642;8.070;2022-07-18T16:45:42;3.42;;;1.90;;
30215;SDS011;17028;47.642;8.070;2022-07-18T16:50:43;5.63;;;2.47;;
30215;SDS011;17028;47.642;8.070;2022-07-18T16:55:44;7.65;;;2.13;;
30215;SDS011;17028;47.642;8.070;2022-07-18T17:00:47;4.57;;;1.95;;
30215;SDS011;17028;47.642;8.070;2022-07-18T17:05:49;3.72;;;2.03;;
30215;SDS011;17028;47.642;8.070;2022-07-18T17:10:51;5.15;;;2.10;;
30215;SDS011;17028;47.642;8.070;2022-07-18T17:15:52;3.03;;;1.95;;
30215;SDS011;17028;47.642;8.070;2022-07-18T17:20:54;4.47;;;2.00;;
30215;SDS011;17028;47.642;8.070;2022-07-18T17:25:55;3.55;;;2.10;;
30215;SDS011;17028;47.642;8.070;2022-07-18T17:30:56;5.00;;;2.33;;
30215;SDS011;17028;47.642;8.070;2022-07-18T17:35:59;7.95;;;2.40;;
30215;SDS011;17028;47.642;8.070;2022-07-18T17:41:01;2.60;;;1.90;;
30215;SDS011;17028;47.642;8.070;2022-07-18T17:46:02;3.75;;;1.73;;
30215;SDS011;17028;47.642;8.070;2022-07-18T17:51:04;4.30;;;2.17;;
30215;SDS011;17028;47.642;8.070;2022-07-18T17:56:06;3.75;;;1.90;;
30215;SDS011;17028;47.642;8.070;2022-07-18T18:01:10;3.97;;;1.95;;
30215;SDS011;17028;47.642;8.070;2022-07-18T18:06:15;5.32;;;2.08;;
30215;SDS011;17028;47.642;8.070;2022-07-18T18:11:16;3.53;;;2.10;;
30215;SDS011;17028;47.642;8.070;2022-07-18T18:16:17;2.30;;;1.67;;
30215;SDS011;17028;47.642;8.070;2022-07-18T18:21:18;3.03;;;1.92;;
30215;SDS011;17028;47.642;8.070;2022-07-18T18:26:19;3.47;;;1.90;;
30215;SDS011;17028;47.642;8.070;2022-07-18T18:31:20;3.28;;;1.90;;
30215;SDS011;17028;47.642;8.070;2022-07-18T18:36:21;3.42;;;1.90;;
30215;SDS011;17028;47.642;8.070;2022-07-18T18:41:42;3.40;;;1.90;;
30215;SDS011;17028;47.642;8.070;2022-07-18T18:46:44;2.28;;;1.73;;
30215;SDS011;17028;47.642;8.070;2022-07-18T18:51:47;2.67;;;1.45;;
30215;SDS011;17028;47.642;8.070;2022-07-18T18:56:48;2.67;;;2.03;;
30215;SDS011;17028;47.642;8.070;2022-07-18T19:01:49;2.92;;;1.60;;
30215;SDS011;17028;47.642;8.070;2022-07-18T19:06:50;2.67;;;1.73;;
30215;SDS011;17028;47.642;8.070;2022-07-18T19:11:51;2.30;;;1.60;;
30215;SDS011;17028;47.642;8.070;2022-07-18T19:16:53;2.20;;;1.52;;
30215;SDS011;17028;47.642;8.070;2022-07-18T19:21:54;1.98;;;1.33;;
30215;SDS011;17028;47.642;8.070;2022-07-18T19:26:55;2.00;;;1.50;;
30215;SDS011;17028;47.642;8.070;2022-07-18T19:31:56;1.65;;;1.25;;
30215;SDS011;17028;47.642;8.070;2022-07-18T19:36:57;1.58;;;1.33;;
30215;SDS011;17028;47.642;8.070;2022-07-18T19:41:58;1.83;;;1.20;;
30215;SDS011;17028;47.642;8.070;2022-07-18T19:46:59;1.85;;;1.33;;
30215;SDS011;17028;47.642;8.070;2022-07-18T19:52:00;4.00;;;2.50;;
30215;SDS011;17028;47.642;8.070;2022-07-18T19:57:02;3.80;;;2.70;;
30215;SDS011;17028;47.642;8.070;2022-07-18T20:02:03;4.80;;;2.63;;
30215;SDS011;17028;47.642;8.070;2022-07-18T20:07:04;3.13;;;1.88;;
30215;SDS011;17028;47.642;8.070;2022-07-18T20:12:05;3.20;;;1.80;;
30215;SDS011;17028;47.642;8.070;2022-07-18T20:17:06;2.60;;;1.85;;
30215;SDS011;17028;47.642;8.070;2022-07-18T20:22:07;3.20;;;1.80;;
30215;SDS011;17028;47.642;8.070;2022-07-18T20:27:08;5.00;;;1.90;;
30215;SDS011;17028;47.642;8.070;2022-07-18T20:32:09;4.00;;;2.00;;
30215;SDS011;17028;47.642;8.070;2022-07-18T20:37:11;3.03;;;1.88;;
30215;SDS011;17028;47.642;8.070;2022-07-18T20:42:12;4.00;;;2.17;;
30215;SDS011;17028;47.642;8.070;2022-07-18T20:47:14;5.00;;;2.17;;
30215;SDS011;17028;47.642;8.070;2022-07-18T20:52:15;3.72;;;1.88;;
30215;SDS011;17028;47.642;8.070;2022-07-18T20:57:16;3.67;;;2.10;;
30215;SDS011;17028;47.642;8.070;2022-07-18T21:02:17;3.92;;;2.25;;
30215;SDS011;17028;47.642;8.070;2022-07-18T21:07:18;4.13;;;2.20;;
30215;SDS011;17028;47.642;8.070;2022-07-18T21:12:19;4.10;;;2.00;;
30215;SDS011;17028;47.642;8.070;2022-07-18T21:17:20;4.25;;;2.00;;
30215;SDS011;17028;47.642;8.070;2022-07-18T21:22:21;4.18;;;2.25;;
30215;SDS011;17028;47.642;8.070;2022-07-18T21:27:22;2.63;;;1.90;;
30215;SDS011;17028;47.642;8.070;2022-07-18T21:32:24;3.22;;;2.30;;
30215;SDS011;17028;47.642;8.070;2022-07-18T21:37:25;3.75;;;2.35;;
30215;SDS011;17028;47.642;8.070;2022-07-18T21:42:26;2.70;;;1.83;;
30215;SDS011;17028;47.642;8.070;2022-07-18T21:47:27;3.95;;;2.38;;
30215;SDS011;17028;47.642;8.070;2022-07-18T21:52:28;4.05;;;1.95;;
30215;SDS011;17028;47.642;8.070;2022-07-18T21:57:29;2.90;;;2.00;;
30215;SDS011;17028;47.642;8.070;2022-07-18T22:02:30;3.72;;;2.10;;
30215;SDS011;17028;47.642;8.070;2022-07-18T22:07:31;4.20;;;2.25;;
30215;SDS011;17028;47.642;8.070;2022-07-18T22:12:32;4.18;;;2.30;;
30215;SDS011;17028;47.642;8.070;2022-07-18T22:17:33;2.20;;;1.70;;
30215;SDS011;17028;47.642;8.070;2022-07-18T22:22:34;3.08;;;2.03;;
30215;SDS011;17028;47.642;8.070;2022-07-18T22:27:36;3.42;;;2.00;;
30215;SDS011;17028;47.642;8.070;2022-07-18T22:32:37;3.47;;;1.98;;
30215;SDS011;17028;47.642;8.070;2022-07-18T22:37:39;3.45;;;1.90;;
30215;SDS011;17028;47.642;8.070;2022-07-18T22:42:41;2.95;;;1.90;;
30215;SDS011;17028;47.642;8.070;2022-07-18T22:47:43;4.07;;;2.17;;
30215;SDS011;17028;47.642;8.070;2022-07-18T22:52:44;3.75;;;1.95;;
30215;SDS011;17028;47.642;8.070;2022-07-18T22:57:45;3.08;;;1.90;;
30215;SDS011;17028;47.642;8.070;2022-07-18T23:02:46;3.33;;;1.80;;
30215;SDS011;17028;47.642;8.070;2022-07-18T23:07:48;2.63;;;1.60;;
30215;SDS011;17028;47.642;8.070;2022-07-18T23:13:10;2.50;;;1.60;;
30215;SDS011;17028;47.642;8.070;2022-07-18T23:18:12;3.03;;;1.90;;
30215;SDS011;17028;47.642;8.070;2022-07-18T23:23:13;2.95;;;1.75;;
30215;SDS011;17028;47.642;8.070;2022-07-18T23:28:14;3.42;;;1.88;;
30215;SDS011;17028;47.642;8.070;2022-07-18T23:33:15;3.95;;;1.92;;
30215;SDS011;17028;47.642;8.070;2022-07-18T23:38:16;4.70;;;1.70;;
30215;SDS011;17028;47.642;8.070;2022-07-18T23:43:17;2.25;;;1.65;;
30215;SDS011;17028;47.642;8.070;2022-07-18T23:48:18;2.60;;;1.63;;
30215;SDS011;17028;47.642;8.070;2022-07-18T23:53:19;2.88;;;1.50;;
30215;SDS011;17028;47.642;8.070;2022-07-18T23:58:20;3.33;;;1.50;;
